createdAt,value
2022-08-25T03:08:06.440Z,19.25
2022-08-25T03:56:05.799Z,18.50
2022-08-25T03:57:05.788Z,18.50
2022-08-25T03:58:06.047Z,18.37
2022-08-25T04:05:05.703Z,18.37
2022-08-25T04:06:05.692Z,18.58
2022-08-25T04:07:05.685Z,18.49
2022-08-25T04:09:05.660Z,18.44
2022-08-25T04:11:05.640Z,18.52
2022-08-25T04:12:05.627Z,18.46
2022-08-25T04:13:05.618Z,18.44
2022-08-25T04:14:05.608Z,18.43
2022-08-25T04:15:05.600Z,18.56
2022-08-25T04:16:05.605Z,18.55
2022-08-25T04:17:05.575Z,18.40
2022-08-25T04:18:05.807Z,18.43
2022-08-25T04:19:05.552Z,18.15
2022-08-25T04:20:05.543Z,18.53
2022-08-25T04:21:05.534Z,18.48
2022-08-25T04:22:05.520Z,18.50
2022-08-25T04:23:05.514Z,18.38
2022-08-25T04:24:05.501Z,18.59
2022-08-25T04:25:05.494Z,18.49
2022-08-25T04:26:05.482Z,18.30
2022-08-25T04:27:05.471Z,18.40
2022-08-25T04:28:05.675Z,18.41
2022-08-25T04:29:05.549Z,18.34
2022-08-25T04:30:05.438Z,18.33
2022-08-25T04:31:05.430Z,18.37
2022-08-25T04:32:05.483Z,18.09
2022-08-25T04:33:05.408Z,18.03
2022-08-25T04:34:14.814Z,17.99
2022-08-25T04:35:06.408Z,18.27
2022-08-25T04:36:08.885Z,18.19
2022-08-25T04:37:06.398Z,18.18
2022-08-25T04:38:05.529Z,18.09
2022-08-25T04:39:05.342Z,18.22
2022-08-25T04:40:05.424Z,18.19
2022-08-25T04:41:05.322Z,18.11
2022-08-25T04:42:05.309Z,18.24
2022-08-25T04:43:05.301Z,18.24
2022-08-25T04:44:05.288Z,17.99
2022-08-25T04:45:05.279Z,18.27
2022-08-25T04:46:05.359Z,18.21
2022-08-25T04:47:05.257Z,18.35
2022-08-25T04:48:05.245Z,18.35
2022-08-25T04:49:05.233Z,18.22
2022-08-25T04:50:05.225Z,18.18
2022-08-25T04:51:05.217Z,18.06
2022-08-25T04:52:05.206Z,18.04
2022-08-25T04:53:06.216Z,18.11
2022-08-25T04:54:05.181Z,17.99
2022-08-25T04:55:05.173Z,18.06
2022-08-25T04:56:05.166Z,18.02
2022-08-25T04:57:05.152Z,17.81
2022-08-25T04:58:05.393Z,17.96
2022-08-25T04:59:05.137Z,17.94
2022-08-25T05:00:05.159Z,18.09
2022-08-25T05:01:05.148Z,18.18
2022-08-25T05:02:05.128Z,18.18
2022-08-25T05:03:05.090Z,18.29
2022-08-25T05:04:05.152Z,18.06
2022-08-25T05:05:05.075Z,18.02
2022-08-25T05:06:05.060Z,18.25
2022-08-25T05:07:05.059Z,18.25
2022-08-25T05:08:05.193Z,18.14
2022-08-25T05:09:05.029Z,18.21
2022-08-25T05:10:05.017Z,18.12
2022-08-25T05:11:05.008Z,18.11
2022-08-25T05:12:04.996Z,18.30
2022-08-25T05:13:04.988Z,18.09
2022-08-25T05:14:04.974Z,18.22
2022-08-25T05:15:04.971Z,18.35
2022-08-25T05:16:04.982Z,18.22
2022-08-25T05:17:04.944Z,18.53
2022-08-25T05:18:05.032Z,18.35
2022-08-25T05:19:04.925Z,18.53
2022-08-25T05:20:04.934Z,18.56
2022-08-25T05:21:04.902Z,18.58
2022-08-25T05:22:04.899Z,18.66
2022-08-25T05:23:04.878Z,18.56
2022-08-25T05:24:04.873Z,18.63
2022-08-25T05:25:04.860Z,18.50
2022-08-25T05:26:04.848Z,18.38
2022-08-25T05:27:04.842Z,18.43
2022-08-25T05:28:05.039Z,18.56
2022-08-25T05:29:04.816Z,18.50
2022-08-25T05:30:04.806Z,18.53
2022-08-25T05:31:04.838Z,18.44
2022-08-25T05:32:04.893Z,18.50
2022-08-25T05:33:04.774Z,18.43
2022-08-25T05:34:04.761Z,18.44
2022-08-25T05:35:04.751Z,18.50
2022-08-25T05:36:04.739Z,18.46
2022-08-25T05:37:05.963Z,18.48
2022-08-25T05:38:04.870Z,18.60
2022-08-25T05:39:04.710Z,18.33
2022-08-25T05:40:04.734Z,18.50
2022-08-25T05:41:04.688Z,18.40
2022-08-25T05:42:04.689Z,18.49
2022-08-25T05:43:04.663Z,18.50
2022-08-25T05:44:04.656Z,18.43
2022-08-25T05:45:04.642Z,18.62
2022-08-25T05:46:04.752Z,18.55
2022-08-25T05:47:04.624Z,18.55
2022-08-25T05:48:04.757Z,18.70
2022-08-25T05:49:04.598Z,18.53
2022-08-25T05:50:04.588Z,18.60
2022-08-25T05:51:04.584Z,18.60
2022-08-25T05:52:04.620Z,18.67
2022-08-25T05:53:04.558Z,18.73
2022-08-25T05:54:04.547Z,18.49
2022-08-25T05:55:04.535Z,18.46
2022-08-25T05:56:04.525Z,18.75
2022-08-25T05:57:04.514Z,18.59
2022-08-25T05:58:04.651Z,18.75
2022-08-25T05:59:09.140Z,18.89
2022-08-25T06:00:04.484Z,18.81
2022-08-25T06:01:04.509Z,18.74
2022-08-25T06:02:04.476Z,18.92
2022-08-25T06:03:04.448Z,18.99
2022-08-25T06:04:04.527Z,19.15
2022-08-25T06:05:04.425Z,19.14
2022-08-25T06:06:04.420Z,19.23
2022-08-25T06:07:04.406Z,19.32
2022-08-25T06:08:04.613Z,19.41
2022-08-25T06:09:04.385Z,19.47
2022-08-25T06:10:04.377Z,19.48
2022-08-25T06:11:04.378Z,19.28
2022-08-25T06:12:04.354Z,19.35
2022-08-25T06:13:04.341Z,19.36
2022-08-25T06:14:04.333Z,19.17
2022-08-25T06:15:04.326Z,19.26
2022-08-25T06:16:04.397Z,19.23
2022-08-25T06:17:04.303Z,19.44
2022-08-25T06:18:04.384Z,19.32
2022-08-25T06:19:04.280Z,19.08
2022-08-25T06:20:04.287Z,19.28
2022-08-25T06:21:04.265Z,19.18
2022-08-25T06:22:04.255Z,19.35
2022-08-25T06:23:04.242Z,19.28
2022-08-25T06:24:04.232Z,19.45
2022-08-25T06:25:04.221Z,19.30
2022-08-25T06:26:04.211Z,19.40
2022-08-25T06:27:04.197Z,19.44
2022-08-25T06:28:04.251Z,19.44
2022-08-25T06:29:04.177Z,19.35
2022-08-25T06:30:07.979Z,19.51
2022-08-25T06:31:04.192Z,19.59
2022-08-25T06:32:04.150Z,19.59
2022-08-25T06:33:04.135Z,19.65
2022-08-25T06:34:04.127Z,19.69
2022-08-25T06:35:04.115Z,19.54
2022-08-25T06:36:04.107Z,19.84
2022-08-25T06:37:04.094Z,19.66
2022-08-25T06:38:04.205Z,19.68
2022-08-25T06:39:04.074Z,19.66
2022-08-25T06:40:04.088Z,19.66
2022-08-25T06:41:04.063Z,19.68
2022-08-25T06:42:04.044Z,19.70
2022-08-25T06:43:04.032Z,19.91
2022-08-25T06:44:05.012Z,19.78
2022-08-25T06:45:04.014Z,19.97
2022-08-25T06:46:04.002Z,19.97
2022-08-25T06:47:04.058Z,19.84
2022-08-25T06:48:04.129Z,19.88
2022-08-25T06:49:03.970Z,19.85
2022-08-25T06:50:03.960Z,20.04
2022-08-25T06:51:03.948Z,20.15
2022-08-25T06:52:03.940Z,20.04
2022-08-25T06:53:03.926Z,20.18
2022-08-25T06:54:03.919Z,20.25
2022-08-25T06:55:03.908Z,20.25
2022-08-25T06:56:06.672Z,20.33
2022-08-25T06:57:03.896Z,20.36
2022-08-25T06:58:04.944Z,20.47
2022-08-25T06:59:03.876Z,20.54
2022-08-25T07:00:03.856Z,20.79
2022-08-25T07:01:03.902Z,20.88
2022-08-25T07:02:03.864Z,20.91
2022-08-25T07:03:03.824Z,21.13
2022-08-25T07:04:04.999Z,20.95
2022-08-25T07:05:04.579Z,21.11
2022-08-25T07:06:03.798Z,21.35
2022-08-25T07:07:03.784Z,21.40
2022-08-25T07:08:03.825Z,21.58
2022-08-25T07:09:03.762Z,21.69
2022-08-25T07:10:03.753Z,21.77
2022-08-25T07:11:03.745Z,21.81
2022-08-25T07:12:03.733Z,21.70
2022-08-25T07:13:03.723Z,21.58
2022-08-25T07:14:03.714Z,21.63
2022-08-25T07:15:19.478Z,21.70
2022-08-25T07:16:03.754Z,21.47
2022-08-25T07:17:03.681Z,21.66
2022-08-25T07:18:05.753Z,21.69
2022-08-25T07:19:03.658Z,21.84
2022-08-25T07:20:03.683Z,21.94
2022-08-25T07:21:03.638Z,22.06
2022-08-25T07:22:03.627Z,22.10
2022-08-25T07:23:03.680Z,22.32
2022-08-25T07:24:03.608Z,22.69
2022-08-25T07:25:03.593Z,22.90
2022-08-25T07:26:11.781Z,22.93
2022-08-25T07:27:04.598Z,23.18
2022-08-25T07:28:03.565Z,23.30
2022-08-25T07:29:03.555Z,23.30
2022-08-25T07:30:04.391Z,23.24
2022-08-25T07:31:03.577Z,23.10
2022-08-25T07:32:03.526Z,23.06
2022-08-25T07:33:06.457Z,22.84
2022-08-25T07:34:03.505Z,22.78
2022-08-25T07:35:03.490Z,22.55
2022-08-25T07:36:03.485Z,22.43
2022-08-25T07:37:03.475Z,22.63
2022-08-25T07:38:03.465Z,22.73
2022-08-25T07:39:03.455Z,22.80
2022-08-25T07:40:03.512Z,22.52
2022-08-25T07:41:03.433Z,22.43
2022-08-25T07:42:03.421Z,22.24
2022-08-25T07:43:03.412Z,22.60
2022-08-25T07:44:03.407Z,22.43
2022-08-25T07:45:03.388Z,22.69
2022-08-25T07:46:03.378Z,22.77
2022-08-25T07:47:03.370Z,22.99
2022-08-25T07:48:03.360Z,23.15
2022-08-25T07:49:03.352Z,23.62
2022-08-25T07:50:03.341Z,23.61
2022-08-25T07:51:05.549Z,23.69
2022-08-25T07:52:05.290Z,23.61
2022-08-25T07:53:03.309Z,23.57
2022-08-25T07:54:03.302Z,23.42
2022-08-25T07:55:03.292Z,23.28
2022-08-25T07:57:03.274Z,23.32
2022-08-25T07:58:03.478Z,23.27
2022-08-25T07:59:03.248Z,23.35
2022-08-25T08:00:03.239Z,23.42
2022-08-25T08:01:03.230Z,23.64
2022-08-25T08:02:03.288Z,23.91
2022-08-25T08:03:03.855Z,23.87
2022-08-25T08:04:03.771Z,23.87
2022-08-25T08:05:03.188Z,23.95
2022-08-25T08:06:03.177Z,23.75
2022-08-25T08:07:03.164Z,23.82
2022-08-25T08:08:03.205Z,23.88
2022-08-25T08:09:03.144Z,24.03
2022-08-25T08:10:37.063Z,23.94
2022-08-25T08:11:05.402Z,23.99
2022-08-25T08:12:03.117Z,24.33
2022-08-25T08:13:03.249Z,24.55
2022-08-25T08:14:03.103Z,24.77
2022-08-25T08:15:03.083Z,24.73
2022-08-25T08:16:03.165Z,24.62
2022-08-25T08:17:03.065Z,24.57
2022-08-25T08:18:03.306Z,24.66
2022-08-25T08:19:03.118Z,24.97
2022-08-25T08:20:03.042Z,25.19
2022-08-25T08:21:03.023Z,25.12
2022-08-25T08:22:03.016Z,24.84
2022-08-25T08:23:03.025Z,25.12
2022-08-25T08:24:05.093Z,25.14
2022-08-25T08:25:04.004Z,25.18
2022-08-25T08:26:02.975Z,25.50
2022-08-25T08:27:02.966Z,25.18
2022-08-25T08:28:03.050Z,25.02
2022-08-25T08:29:02.944Z,25.19
2022-08-25T08:30:02.934Z,25.42
2022-08-25T08:31:02.982Z,25.70
2022-08-25T08:32:02.913Z,26.06
2022-08-25T08:33:11.911Z,26.30
2022-08-25T08:34:03.912Z,26.18
2022-08-25T08:35:02.887Z,26.22
2022-08-25T08:36:04.910Z,26.55
2022-08-25T08:37:02.864Z,26.33
2022-08-25T08:38:02.860Z,26.51
2022-08-25T08:39:02.853Z,26.86
2022-08-25T08:40:03.400Z,26.87
2022-08-25T08:41:02.831Z,27.04
2022-08-25T08:42:10.948Z,26.56
2022-08-25T08:43:03.966Z,26.44
2022-08-25T08:44:02.938Z,26.34
2022-08-25T08:45:02.840Z,26.66
2022-08-25T08:46:02.844Z,27.04
2022-08-25T08:47:02.783Z,27.33
2022-08-25T08:48:02.855Z,27.82
2022-08-25T08:49:02.746Z,27.82
2022-08-25T08:50:03.833Z,27.26
2022-08-25T08:51:02.729Z,26.87
2022-08-25T08:52:02.853Z,26.76
2022-08-25T08:53:02.713Z,26.73
2022-08-25T08:54:02.701Z,26.92
2022-08-25T08:55:02.693Z,26.86
2022-08-25T08:56:02.681Z,27.34
2022-08-25T08:57:02.672Z,26.99
2022-08-25T08:58:02.698Z,26.84
2022-08-25T08:59:06.235Z,27.27
2022-08-25T09:00:02.644Z,27.86
2022-08-25T09:01:02.649Z,28.51
2022-08-25T09:02:02.802Z,28.95
2022-08-25T09:03:02.654Z,29.13
2022-08-25T09:04:02.603Z,29.15
2022-08-25T09:05:02.597Z,28.73
2022-08-25T09:06:02.585Z,27.82
2022-08-25T09:07:02.579Z,27.59
2022-08-25T09:08:02.567Z,27.89
2022-08-25T09:09:02.558Z,28.41
2022-08-25T09:10:02.548Z,28.98
2022-08-25T09:11:02.544Z,29.41
2022-08-25T09:12:02.526Z,29.56
2022-08-25T09:13:02.520Z,29.13
2022-08-25T09:14:02.511Z,28.73
2022-08-25T09:15:02.506Z,28.54
2022-08-25T09:16:02.545Z,28.49
2022-08-25T09:17:02.481Z,28.15
2022-08-25T09:18:02.773Z,28.30
2022-08-25T09:19:02.463Z,28.41
2022-08-25T09:20:02.451Z,28.54
2022-08-25T09:21:02.443Z,29.30
2022-08-25T09:22:02.435Z,29.94
2022-08-25T09:23:02.427Z,30.69
2022-08-25T09:24:02.417Z,31.25
2022-08-25T09:25:04.344Z,31.60
2022-08-25T09:26:03.420Z,32.07
2022-08-25T09:27:02.392Z,32.32
2022-08-25T09:28:02.391Z,32.41
2022-08-25T09:29:02.371Z,32.12
2022-08-25T09:30:05.216Z,31.06
2022-08-25T09:31:02.399Z,29.99
2022-08-25T09:32:02.344Z,29.50
2022-08-25T09:33:02.334Z,29.95
2022-08-25T09:34:02.335Z,30.61
2022-08-25T09:35:02.316Z,31.14
2022-08-25T09:36:04.593Z,31.53
2022-08-25T09:37:02.296Z,32.11
2022-08-25T09:38:02.369Z,31.52
2022-08-25T09:39:02.279Z,32.00
2022-08-25T09:40:02.342Z,32.08
2022-08-25T09:41:02.262Z,32.71
2022-08-25T09:42:02.253Z,32.61
2022-08-25T09:43:02.343Z,31.25
2022-08-25T09:44:02.234Z,30.74
2022-08-25T09:45:02.223Z,31.05
2022-08-25T09:46:02.277Z,31.53
2022-08-25T09:47:02.440Z,32.32
2022-08-25T09:48:02.199Z,33.12
2022-08-25T09:49:02.214Z,33.64
2022-08-25T09:50:04.619Z,34.03
2022-08-25T09:51:02.169Z,34.24
2022-08-25T09:52:02.162Z,34.21
2022-08-25T09:53:02.152Z,34.40
2022-08-25T09:54:03.161Z,34.63
2022-08-25T09:55:03.154Z,33.77
2022-08-25T09:56:02.127Z,33.18
2022-08-25T09:57:02.161Z,32.74
2022-08-25T09:58:02.109Z,32.82
2022-08-25T09:59:03.321Z,32.22
2022-08-25T10:00:02.090Z,31.38
2022-08-25T10:01:02.084Z,31.71
2022-08-25T10:02:02.172Z,32.55
2022-08-25T10:03:05.892Z,33.04
2022-08-25T10:04:02.097Z,33.58
2022-08-25T10:05:02.110Z,33.76
2022-08-25T10:06:02.037Z,34.12
2022-08-25T10:07:02.027Z,34.52
2022-08-25T10:08:02.016Z,34.69
2022-08-25T10:09:02.011Z,32.86
2022-08-25T10:10:01.999Z,32.36
2022-08-25T10:11:01.992Z,32.72
2022-08-25T10:12:02.040Z,33.40
2022-08-25T10:13:02.157Z,33.16
2022-08-25T10:14:01.963Z,33.20
2022-08-25T10:15:01.953Z,32.87
2022-08-25T10:16:01.965Z,32.99
2022-08-25T10:17:01.937Z,32.65
2022-08-25T10:18:01.925Z,32.32
2022-08-25T10:19:01.916Z,32.04
2022-08-25T10:20:01.908Z,31.58
2022-08-25T10:21:01.902Z,31.37
2022-08-25T10:22:01.890Z,31.66
2022-08-25T10:23:02.063Z,31.05
2022-08-25T10:24:01.872Z,31.21
2022-08-25T10:25:04.734Z,31.93
2022-08-25T10:26:04.277Z,32.15
2022-08-25T10:27:01.846Z,31.33
2022-08-25T10:28:01.835Z,30.73
2022-08-25T10:29:01.827Z,30.53
2022-08-25T10:30:03.019Z,30.79
2022-08-25T10:31:01.841Z,30.43
2022-08-25T10:32:01.802Z,29.91
2022-08-25T10:33:01.861Z,29.49
2022-08-25T10:34:01.784Z,30.13
2022-08-25T10:35:01.773Z,30.40
2022-08-25T10:36:01.765Z,30.93
2022-08-25T10:37:01.757Z,31.88
2022-08-25T10:38:01.746Z,32.23
2022-08-25T10:39:01.932Z,32.52
2022-08-25T10:40:01.807Z,31.71
2022-08-25T10:41:01.717Z,32.32
2022-08-25T10:42:01.714Z,31.92
2022-08-25T10:43:01.789Z,32.39
2022-08-25T10:44:01.694Z,33.32
2022-08-25T10:45:01.683Z,34.08
2022-08-25T10:46:01.754Z,34.48
2022-08-25T10:47:01.665Z,34.42
2022-08-25T10:48:01.658Z,34.32
2022-08-25T10:49:01.652Z,34.07
2022-08-25T10:50:01.642Z,34.11
2022-08-25T10:51:01.648Z,32.91
2022-08-25T10:52:01.625Z,32.37
2022-08-25T10:53:01.615Z,33.02
2022-08-25T10:54:02.237Z,33.28
2022-08-25T10:55:01.603Z,32.37
2022-08-25T10:56:01.587Z,32.02
2022-08-25T10:57:02.015Z,32.18
2022-08-25T10:58:01.581Z,32.26
2022-08-25T10:59:01.563Z,32.15
2022-08-25T11:00:01.601Z,31.63
2022-08-25T11:01:01.596Z,31.73
2022-08-25T11:02:01.573Z,32.56
2022-08-25T11:03:01.573Z,33.48
2022-08-25T11:04:01.519Z,33.09
2022-08-25T11:05:01.625Z,32.65
2022-08-25T11:06:01.504Z,31.88
2022-08-25T11:07:01.495Z,31.71
2022-08-25T11:08:01.486Z,31.53
2022-08-25T11:09:01.475Z,32.67
2022-08-25T11:10:01.469Z,32.12
2022-08-25T11:11:01.459Z,31.77
2022-08-25T11:12:01.452Z,32.22
2022-08-25T11:13:01.445Z,31.96
2022-08-25T11:14:04.582Z,32.19
2022-08-25T11:15:01.427Z,33.06
2022-08-25T11:16:19.262Z,33.82
2022-08-25T11:17:02.477Z,34.22
2022-08-25T11:18:02.140Z,34.86
2022-08-25T11:19:01.392Z,34.54
2022-08-25T11:20:01.384Z,34.42
2022-08-25T11:21:01.372Z,34.92
2022-08-25T11:22:01.369Z,34.18
2022-08-25T11:23:01.359Z,33.91
2022-08-25T11:24:01.352Z,33.49
2022-08-25T11:25:01.346Z,33.28
2022-08-25T11:26:01.337Z,32.83
2022-08-25T11:27:01.332Z,32.52
2022-08-25T11:28:01.376Z,32.23
2022-08-25T11:29:01.310Z,32.08
2022-08-25T11:30:01.305Z,32.57
2022-08-25T11:31:01.360Z,33.09
2022-08-25T11:32:01.289Z,34.21
2022-08-25T11:33:01.279Z,35.20
2022-08-25T11:34:01.274Z,35.69
2022-08-25T11:35:01.264Z,34.71
2022-08-25T11:36:01.259Z,34.77
2022-08-25T11:37:01.401Z,35.32
2022-08-25T11:38:01.237Z,35.22
2022-08-25T11:39:01.231Z,34.82
2022-08-25T11:40:01.248Z,33.98
2022-08-25T11:41:01.211Z,33.61
2022-08-25T11:42:01.201Z,33.17
2022-08-25T11:43:01.193Z,32.07
2022-08-25T11:44:01.185Z,31.89
2022-08-25T11:45:01.179Z,32.32
2022-08-25T11:46:01.198Z,33.02
2022-08-25T11:47:01.162Z,33.38
2022-08-25T11:48:01.222Z,33.58
2022-08-25T11:49:01.144Z,34.18
2022-08-25T11:50:01.134Z,34.93
2022-08-25T11:51:01.126Z,35.76
2022-08-25T11:52:02.860Z,35.69
2022-08-25T11:53:01.107Z,35.89
2022-08-25T11:54:01.100Z,35.43
2022-08-25T11:55:01.096Z,35.26
2022-08-25T11:56:01.083Z,33.54
2022-08-25T11:57:01.078Z,32.79
2022-08-25T11:58:01.067Z,33.46
2022-08-25T11:59:01.061Z,34.07
2022-08-25T12:00:01.050Z,34.39
2022-08-25T12:01:01.045Z,34.02
2022-08-25T12:02:01.038Z,34.85
2022-08-25T12:03:01.817Z,35.65
2022-08-25T12:04:01.158Z,36.57
2022-08-25T12:05:01.115Z,36.79
2022-08-25T12:06:01.010Z,36.48
2022-08-25T12:07:01.002Z,36.73
2022-08-25T12:08:00.988Z,36.77
2022-08-25T12:09:00.985Z,37.19
2022-08-25T12:10:00.972Z,37.51
2022-08-25T12:11:00.964Z,37.30
2022-08-25T12:12:00.955Z,36.95
2022-08-25T12:13:00.952Z,35.65
2022-08-25T12:14:00.943Z,35.55
2022-08-25T12:15:00.934Z,35.55
2022-08-25T12:16:00.926Z,35.42
2022-08-25T12:17:00.960Z,34.70
2022-08-25T12:20:26.820Z,33.43
2022-08-25T12:20:28.231Z,33.26
2022-08-25T12:21:28.226Z,33.86
2022-08-25T12:22:28.215Z,34.74
2022-08-25T12:23:44.813Z,34.52
2022-08-25T12:24:28.203Z,33.58
2022-08-25T12:25:28.191Z,33.26
2022-08-25T12:26:28.183Z,33.48
2022-08-25T12:27:28.253Z,34.52
2022-08-25T12:28:35.101Z,35.60
2022-08-25T12:29:28.279Z,36.16
2022-08-25T12:30:28.243Z,36.31
2022-08-25T12:31:29.163Z,36.33
2022-08-25T12:32:28.135Z,35.82
2022-08-25T12:33:28.128Z,36.04
2022-08-25T12:34:28.118Z,36.67
2022-08-25T12:35:29.554Z,37.55
2022-08-25T12:44:04.592Z,37.68
2022-08-25T12:44:07.226Z,36.27
2022-08-25T16:22:56.460Z,37.17
2022-08-25T16:22:57.882Z,34.95
2022-08-25T16:23:57.874Z,35.05
2022-08-25T16:24:57.866Z,34.67
2022-08-25T16:25:57.857Z,33.95
2022-08-25T16:26:57.850Z,34.32
2022-08-25T16:27:57.836Z,34.61
2022-08-25T16:29:16.573Z,35.30
2022-08-25T16:29:57.821Z,35.95
2022-08-25T16:30:57.814Z,35.99
2022-08-25T16:33:24.821Z,36.39
2022-08-25T16:33:26.938Z,36.40
2022-08-25T16:34:28.732Z,35.79
2022-08-25T16:35:26.917Z,36.20
2022-08-25T16:36:27.055Z,36.43
2022-08-25T16:37:26.905Z,36.31
2022-08-25T16:38:26.894Z,35.84
2022-08-25T16:39:26.889Z,36.05
2022-08-25T16:40:26.963Z,35.92
2022-08-25T16:41:26.872Z,35.67
2022-08-25T16:42:26.865Z,35.20
2022-08-25T16:43:26.858Z,34.54
2022-08-25T16:44:26.848Z,34.59
2022-08-25T16:45:26.839Z,34.20
2022-08-25T16:46:26.868Z,33.76
2022-08-25T16:47:27.087Z,33.69
2022-08-25T16:48:26.814Z,33.67
2022-08-25T16:49:26.805Z,34.18
2022-08-25T16:50:26.798Z,34.63
2022-08-25T16:51:29.657Z,34.32
2022-08-25T16:52:28.459Z,34.03
2022-08-25T16:53:26.771Z,34.08
2022-08-25T16:54:26.762Z,34.24
2022-08-25T16:55:26.756Z,33.48
2022-08-25T16:56:27.329Z,33.76
2022-08-25T16:57:26.738Z,34.03
2022-08-25T16:58:26.729Z,34.07
2022-08-25T16:59:26.718Z,34.67
2022-08-25T17:00:26.765Z,35.10
2022-08-25T17:01:26.702Z,35.48
2022-08-25T17:02:26.765Z,35.71
2022-08-25T17:03:29.076Z,35.94
2022-08-25T17:04:31.926Z,35.73
2022-08-25T17:05:26.667Z,35.67
2022-08-25T17:06:26.660Z,35.11
2022-08-25T17:07:26.648Z,34.33
2022-08-25T17:08:26.643Z,33.70
2022-08-25T17:09:26.631Z,33.30
2022-08-25T17:10:26.623Z,33.43
2022-08-25T17:11:26.765Z,33.72
2022-08-25T17:12:26.602Z,33.94
2022-08-25T17:13:26.596Z,34.02
2022-08-25T17:14:26.586Z,34.34
2022-08-25T17:15:26.576Z,34.40
2022-08-25T17:16:26.667Z,34.11
2022-08-25T17:17:27.110Z,33.84
2022-08-25T17:18:26.549Z,34.11
2022-08-25T17:19:26.602Z,34.33
2022-08-25T17:20:26.543Z,34.63
2022-08-25T17:21:26.523Z,34.67
2022-08-25T17:22:26.512Z,34.37
2022-08-25T17:23:26.506Z,34.26
2022-08-25T17:24:29.553Z,34.40
2022-08-25T17:25:27.497Z,34.44
2022-08-25T17:26:27.787Z,34.34
2022-08-25T17:27:26.471Z,34.08
2022-08-25T17:28:26.462Z,33.95
2022-08-25T17:29:26.504Z,34.02
2022-08-25T17:30:26.447Z,33.98
2022-08-25T17:31:26.476Z,33.83
2022-08-25T17:32:28.984Z,33.73
2022-08-25T17:33:26.414Z,33.70
2022-08-25T17:34:26.406Z,33.53
2022-08-25T17:35:26.397Z,33.40
2022-08-25T17:36:26.867Z,33.33
2022-08-25T17:37:26.381Z,33.11
2022-08-25T17:38:26.371Z,32.93
2022-08-25T17:39:26.359Z,32.90
2022-08-25T17:40:26.524Z,32.67
2022-08-25T17:41:26.340Z,32.10
2022-08-25T17:42:26.331Z,31.16
2022-08-25T17:43:26.324Z,30.86
2022-08-25T17:44:26.315Z,30.66
2022-08-25T17:45:26.318Z,30.40
2022-08-25T17:46:26.348Z,30.24
2022-08-25T17:47:26.285Z,30.16
2022-08-25T17:48:26.378Z,29.95
2022-08-25T17:49:26.268Z,30.06
2022-08-25T17:50:26.259Z,29.84
2022-08-25T17:51:26.247Z,29.79
2022-08-25T17:52:26.238Z,29.68
2022-08-25T17:53:26.226Z,29.40
2022-08-25T17:54:26.219Z,29.09
2022-08-25T17:55:26.209Z,28.97
2022-08-25T17:56:27.283Z,28.71
2022-08-25T17:57:26.192Z,28.57
2022-08-25T17:58:26.179Z,28.57
2022-08-25T17:59:26.168Z,28.45
2022-08-25T18:00:26.184Z,28.35
2022-08-25T18:01:26.306Z,28.38
2022-08-25T18:02:26.143Z,28.00
2022-08-25T18:03:26.132Z,27.94
2022-08-25T18:04:27.281Z,28.06
2022-08-25T18:05:26.110Z,28.06
2022-08-25T18:06:26.103Z,27.78
2022-08-25T18:07:26.092Z,27.81
2022-08-25T18:08:32.052Z,27.81
2022-08-25T18:09:27.095Z,27.59
2022-08-25T18:10:26.067Z,27.60
2022-08-25T18:11:26.067Z,27.57
2022-08-25T18:12:27.503Z,27.29
2022-08-25T18:13:26.031Z,27.24
2022-08-25T18:14:26.021Z,26.95
2022-08-25T18:15:26.012Z,26.71
2022-08-25T18:16:26.002Z,26.73
2022-08-25T18:17:25.993Z,26.52
2022-08-25T18:18:25.985Z,26.54
2022-08-25T18:19:25.975Z,26.48
2022-08-25T18:20:25.966Z,26.43
2022-08-25T18:21:30.407Z,26.21
2022-08-25T18:22:25.945Z,26.00
2022-08-25T18:23:25.931Z,25.82
2022-08-25T18:24:25.924Z,25.80
2022-08-25T18:25:25.913Z,25.78
2022-08-25T18:26:25.902Z,25.75
2022-08-25T18:27:25.892Z,25.87
2022-08-25T18:28:25.883Z,25.58
2022-08-25T18:29:25.870Z,25.75
2022-08-25T18:30:26.291Z,25.60
2022-08-25T18:31:25.976Z,25.60
2022-08-25T18:32:26.120Z,25.53
2022-08-25T18:33:25.830Z,25.48
2022-08-25T18:34:25.823Z,25.44
2022-08-25T18:35:26.694Z,25.39
2022-08-25T18:36:25.804Z,25.34
2022-08-25T18:37:25.793Z,25.29
2022-08-25T18:38:25.782Z,25.19
2022-08-25T18:39:25.773Z,25.12
2022-08-25T18:40:25.851Z,25.12
2022-08-25T18:41:25.752Z,25.02
2022-08-25T18:42:25.742Z,24.99
2022-08-25T18:43:25.732Z,24.77
2022-08-25T18:44:25.723Z,24.84
2022-08-25T18:45:25.710Z,24.85
2022-08-25T18:48:26.563Z,24.87
2022-08-25T18:49:26.924Z,24.76
2022-08-25T18:50:25.661Z,24.81
2022-08-25T18:51:25.649Z,24.73
2022-08-25T18:56:25.596Z,24.69
2022-08-25T18:58:25.577Z,24.39
2022-08-25T18:59:25.565Z,24.50
2022-08-25T19:00:25.556Z,24.35
2022-08-25T19:01:25.730Z,24.30
